sensor_id;sensor_type;location;lat;lon;timestamp;temperature;humidity
10042;DHT22;5061;49.068;12.058;2023-11-19T00:01:11;4.50;99.90
10042;DHT22;5061;49.068;12.058;2023-11-19T00:04:32;4.50;99.90
10042;DHT22;5061;49.068;12.058;2023-11-19T00:07:53;4.50;99.90
10042;DHT22;5061;49.068;12.058;2023-11-19T00:11:14;4.50;99.90
10042;DHT22;5061;49.068;12.058;2023-11-19T00:14:36;4.60;99.90
10042;DHT22;5061;49.068;12.058;2023-11-19T00:17:56;4.60;99.90
10042;DHT22;5061;49.068;12.058;2023-11-19T00:21:17;4.60;99.90
10042;DHT22;5061;49.068;12.058;2023-11-19T00:24:37;4.60;99.90
10042;DHT22;5061;49.068;12.058;2023-11-19T00:27:58;4.50;99.90
10042;DHT22;5061;49.068;12.058;2023-11-19T00:31:20;4.60;99.90
10042;DHT22;5061;49.068;12.058;2023-11-19T00:34:43;4.50;99.90
10042;DHT22;5061;49.068;12.058;2023-11-19T00:38:03;4.50;99.90
10042;DHT22;5061;49.068;12.058;2023-11-19T00:41:24;4.50;99.90
10042;DHT22;5061;49.068;12.058;2023-11-19T00:44:45;4.50;99.90
10042;DHT22;5061;49.068;12.058;2023-11-19T00:48:06;4.60;99.90
10042;DHT22;5061;49.068;12.058;2023-11-19T00:51:27;4.50;99.90
10042;DHT22;5061;49.068;12.058;2023-11-19T00:54:48;4.50;99.90
10042;DHT22;5061;49.068;12.058;2023-11-19T00:58:08;4.60;99.90
10042;DHT22;5061;49.068;12.058;2023-11-19T01:01:29;4.60;99.90
10042;DHT22;5061;49.068;12.058;2023-11-19T01:04:50;4.60;99.90
10042;DHT22;5061;49.068;12.058;2023-11-19T01:08:11;4.50;99.90
10042;DHT22;5061;49.068;12.058;2023-11-19T01:11:31;4.50;99.90
10042;DHT22;5061;49.068;12.058;2023-11-19T01:14:52;4.60;99.90
10042;DHT22;5061;49.068;12.058;2023-11-19T01:18:12;4.50;99.90
10042;DHT22;5061;49.068;12.058;2023-11-19T01:21:33;4.50;99.90
10042;DHT22;5061;49.068;12.058;2023-11-19T01:24:54;4.50;99.90
10042;DHT22;5061;49.068;12.058;2023-11-19T01:28:14;4.60;99.90
10042;DHT22;5061;49.068;12.058;2023-11-19T01:31:35;4.60;99.90
10042;DHT22;5061;49.068;12.058;2023-11-19T01:34:55;4.60;99.90
10042;DHT22;5061;49.068;12.058;2023-11-19T01:38:16;4.60;99.90
10042;DHT22;5061;49.068;12.058;2023-11-19T01:41:37;4.50;99.90
10042;DHT22;5061;49.068;12.058;2023-11-19T01:44:59;4.60;99.90
10042;DHT22;5061;49.068;12.058;2023-11-19T01:48:20;4.50;99.90
10042;DHT22;5061;49.068;12.058;2023-11-19T01:51:41;4.50;99.90
10042;DHT22;5061;49.068;12.058;2023-11-19T01:55:02;4.50;99.90
10042;DHT22;5061;49.068;12.058;2023-11-19T01:58:24;4.50;99.90
10042;DHT22;5061;49.068;12.058;2023-11-19T02:01:45;4.50;99.90
10042;DHT22;5061;49.068;12.058;2023-11-19T02:05:06;4.60;99.90
10042;DHT22;5061;49.068;12.058;2023-11-19T02:08:27;4.50;99.90
10042;DHT22;5061;49.068;12.058;2023-11-19T02:11:48;4.50;99.90
10042;DHT22;5061;49.068;12.058;2023-11-19T02:15:11;4.50;99.90
10042;DHT22;5061;49.068;12.058;2023-11-19T02:18:32;4.50;99.90
10042;DHT22;5061;49.068;12.058;2023-11-19T02:21:53;4.50;99.90
10042;DHT22;5061;49.068;12.058;2023-11-19T02:25:25;4.50;99.90
10042;DHT22;5061;49.068;12.058;2023-11-19T02:28:50;4.50;99.90
10042;DHT22;5061;49.068;12.058;2023-11-19T02:32:10;4.50;99.90
10042;DHT22;5061;49.068;12.058;2023-11-19T02:35:33;4.50;99.90
10042;DHT22;5061;49.068;12.058;2023-11-19T02:38:54;4.50;99.90
10042;DHT22;5061;49.068;12.058;2023-11-19T02:42:15;4.50;99.90
10042;DHT22;5061;49.068;12.058;2023-11-19T02:45:36;4.50;99.90
10042;DHT22;5061;49.068;12.058;2023-11-19T02:48:56;4.50;99.90
10042;DHT22;5061;49.068;12.058;2023-11-19T02:52:17;4.50;99.90
10042;DHT22;5061;49.068;12.058;2023-11-19T02:55:39;4.40;99.90
10042;DHT22;5061;49.068;12.058;2023-11-19T02:59:01;4.50;99.90
10042;DHT22;5061;49.068;12.058;2023-11-19T03:02:29;4.40;99.90
10042;DHT22;5061;49.068;12.058;2023-11-19T03:05:54;4.40;99.90
10042;DHT22;5061;49.068;12.058;2023-11-19T03:09:15;4.40;99.90
10042;DHT22;5061;49.068;12.058;2023-11-19T03:12:36;4.50;99.90
10042;DHT22;5061;49.068;12.058;2023-11-19T03:15:56;4.50;99.90
10042;DHT22;5061;49.068;12.058;2023-11-19T03:19:17;4.50;99.90
10042;DHT22;5061;49.068;12.058;2023-11-19T03:22:38;4.40;99.90
10042;DHT22;5061;49.068;12.058;2023-11-19T03:25:58;4.40;99.90
10042;DHT22;5061;49.068;12.058;2023-11-19T03:29:19;4.50;99.90
10042;DHT22;5061;49.068;12.058;2023-11-19T03:32:40;4.40;99.90
10042;DHT22;5061;49.068;12.058;2023-11-19T03:36:00;4.40;99.90
10042;DHT22;5061;49.068;12.058;2023-11-19T03:39:21;4.40;99.90
10042;DHT22;5061;49.068;12.058;2023-11-19T03:42:46;4.40;99.90
10042;DHT22;5061;49.068;12.058;2023-11-19T03:46:19;4.40;99.90
10042;DHT22;5061;49.068;12.058;2023-11-19T03:49:40;4.40;99.90
10042;DHT22;5061;49.068;12.058;2023-11-19T03:53:00;4.40;99.90
10042;DHT22;5061;49.068;12.058;2023-11-19T03:56:23;4.40;99.90
10042;DHT22;5061;49.068;12.058;2023-11-19T03:59:43;4.40;99.90
10042;DHT22;5061;49.068;12.058;2023-11-19T04:03:04;4.40;99.90
10042;DHT22;5061;49.068;12.058;2023-11-19T04:06:25;4.40;99.90
10042;DHT22;5061;49.068;12.058;2023-11-19T04:09:46;4.40;99.90
10042;DHT22;5061;49.068;12.058;2023-11-19T04:13:07;4.40;99.90
10042;DHT22;5061;49.068;12.058;2023-11-19T04:16:27;4.40;99.90
10042;DHT22;5061;49.068;12.058;2023-11-19T04:19:49;4.40;99.90
10042;DHT22;5061;49.068;12.058;2023-11-19T04:23:09;4.40;99.90
10042;DHT22;5061;49.068;12.058;2023-11-19T04:26:30;4.40;99.90
10042;DHT22;5061;49.068;12.058;2023-11-19T04:29:51;4.40;99.90
10042;DHT22;5061;49.068;12.058;2023-11-19T04:33:12;4.30;99.90
10042;DHT22;5061;49.068;12.058;2023-11-19T04:36:33;4.30;99.90
10042;DHT22;5061;49.068;12.058;2023-11-19T04:39:54;4.30;99.90
10042;DHT22;5061;49.068;12.058;2023-11-19T04:43:15;4.30;99.90
10042;DHT22;5061;49.068;12.058;2023-11-19T04:46:35;4.30;99.90
10042;DHT22;5061;49.068;12.058;2023-11-19T04:49:56;4.30;99.90
10042;DHT22;5061;49.068;12.058;2023-11-19T04:53:17;4.30;99.90
10042;DHT22;5061;49.068;12.058;2023-11-19T04:56:37;4.20;99.90
10042;DHT22;5061;49.068;12.058;2023-11-19T04:59:58;4.20;99.90
10042;DHT22;5061;49.068;12.058;2023-11-19T05:03:19;4.30;99.90
10042;DHT22;5061;49.068;12.058;2023-11-19T05:06:39;4.20;99.90
10042;DHT22;5061;49.068;12.058;2023-11-19T05:10:00;4.20;99.90
10042;DHT22;5061;49.068;12.058;2023-11-19T05:13:20;4.20;99.90
10042;DHT22;5061;49.068;12.058;2023-11-19T05:16:41;4.20;99.90
10042;DHT22;5061;49.068;12.058;2023-11-19T05:20:03;4.20;99.90
10042;DHT22;5061;49.068;12.058;2023-11-19T05:23:24;4.10;99.90
10042;DHT22;5061;49.068;12.058;2023-11-19T05:26:44;4.20;99.90
10042;DHT22;5061;49.068;12.058;2023-11-19T05:30:06;4.20;99.90
10042;DHT22;5061;49.068;12.058;2023-11-19T05:33:30;4.20;99.90
10042;DHT22;5061;49.068;12.058;2023-11-19T05:36:51;4.20;99.90
10042;DHT22;5061;49.068;12.058;2023-11-19T05:40:11;4.20;99.90
10042;DHT22;5061;49.068;12.058;2023-11-19T05:43:34;4.20;99.90
10042;DHT22;5061;49.068;12.058;2023-11-19T05:46:55;4.20;99.90
10042;DHT22;5061;49.068;12.058;2023-11-19T05:50:16;4.20;99.90
10042;DHT22;5061;49.068;12.058;2023-11-19T05:53:37;4.20;99.90
10042;DHT22;5061;49.068;12.058;2023-11-19T05:56:57;4.30;99.90
10042;DHT22;5061;49.068;12.058;2023-11-19T06:00:18;4.20;99.90
10042;DHT22;5061;49.068;12.058;2023-11-19T06:03:38;4.20;99.90
10042;DHT22;5061;49.068;12.058;2023-11-19T06:06:59;4.20;99.90
10042;DHT22;5061;49.068;12.058;2023-11-19T06:10:19;4.20;99.90
10042;DHT22;5061;49.068;12.058;2023-11-19T06:13:41;4.30;99.90
10042;DHT22;5061;49.068;12.058;2023-11-19T06:17:01;4.30;99.90
10042;DHT22;5061;49.068;12.058;2023-11-19T06:20:22;4.30;99.90
10042;DHT22;5061;49.068;12.058;2023-11-19T06:23:42;4.30;99.90
10042;DHT22;5061;49.068;12.058;2023-11-19T06:27:03;4.30;99.90
10042;DHT22;5061;49.068;12.058;2023-11-19T06:30:24;4.30;99.90
10042;DHT22;5061;49.068;12.058;2023-11-19T06:33:46;4.30;99.90
10042;DHT22;5061;49.068;12.058;2023-11-19T06:37:06;4.30;99.90
10042;DHT22;5061;49.068;12.058;2023-11-19T06:40:30;4.30;99.90
10042;DHT22;5061;49.068;12.058;2023-11-19T06:43:50;4.30;99.90
10042;DHT22;5061;49.068;12.058;2023-11-19T06:47:12;4.30;99.90
10042;DHT22;5061;49.068;12.058;2023-11-19T06:50:33;4.30;99.90
10042;DHT22;5061;49.068;12.058;2023-11-19T06:53:54;4.30;99.90
10042;DHT22;5061;49.068;12.058;2023-11-19T06:57:14;4.30;99.90
10042;DHT22;5061;49.068;12.058;2023-11-19T07:00:35;4.30;99.90
10042;DHT22;5061;49.068;12.058;2023-11-19T07:03:56;4.30;99.90
10042;DHT22;5061;49.068;12.058;2023-11-19T07:07:18;4.30;99.90
10042;DHT22;5061;49.068;12.058;2023-11-19T07:10:41;4.30;99.90
10042;DHT22;5061;49.068;12.058;2023-11-19T07:14:02;4.20;99.90
10042;DHT22;5061;49.068;12.058;2023-11-19T07:17:23;4.20;99.90
10042;DHT22;5061;49.068;12.058;2023-11-19T07:20:44;4.30;99.90
10042;DHT22;5061;49.068;12.058;2023-11-19T07:24:06;4.30;99.90
10042;DHT22;5061;49.068;12.058;2023-11-19T07:27:27;4.30;99.90
10042;DHT22;5061;49.068;12.058;2023-11-19T07:30:48;4.30;99.90
10042;DHT22;5061;49.068;12.058;2023-11-19T07:34:08;4.30;99.90
10042;DHT22;5061;49.068;12.058;2023-11-19T07:37:29;4.30;99.90
10042;DHT22;5061;49.068;12.058;2023-11-19T07:40:50;4.30;99.90
10042;DHT22;5061;49.068;12.058;2023-11-19T07:44:10;4.30;99.90
10042;DHT22;5061;49.068;12.058;2023-11-19T07:47:31;4.30;99.90
10042;DHT22;5061;49.068;12.058;2023-11-19T07:50:52;4.30;99.90
10042;DHT22;5061;49.068;12.058;2023-11-19T07:54:13;4.30;99.90
10042;DHT22;5061;49.068;12.058;2023-11-19T07:57:34;4.30;99.90
10042;DHT22;5061;49.068;12.058;2023-11-19T08:00:55;4.30;99.90
10042;DHT22;5061;49.068;12.058;2023-11-19T08:04:15;4.30;99.90
10042;DHT22;5061;49.068;12.058;2023-11-19T08:07:36;4.30;99.90
10042;DHT22;5061;49.068;12.058;2023-11-19T08:10:56;4.30;99.90
10042;DHT22;5061;49.068;12.058;2023-11-19T08:14:17;4.30;99.90
10042;DHT22;5061;49.068;12.058;2023-11-19T08:17:38;4.30;99.90
10042;DHT22;5061;49.068;12.058;2023-11-19T08:20:59;4.40;99.90
10042;DHT22;5061;49.068;12.058;2023-11-19T08:24:21;4.40;99.90
10042;DHT22;5061;49.068;12.058;2023-11-19T08:27:41;4.40;99.90
10042;DHT22;5061;49.068;12.058;2023-11-19T08:31:04;4.40;99.90
10042;DHT22;5061;49.068;12.058;2023-11-19T08:34:25;4.50;99.90
10042;DHT22;5061;49.068;12.058;2023-11-19T08:37:46;4.50;99.90
10042;DHT22;5061;49.068;12.058;2023-11-19T08:41:06;4.50;99.90
10042;DHT22;5061;49.068;12.058;2023-11-19T08:44:27;4.50;99.90
10042;DHT22;5061;49.068;12.058;2023-11-19T08:47:48;4.50;99.90
10042;DHT22;5061;49.068;12.058;2023-11-19T08:51:08;4.60;99.90
10042;DHT22;5061;49.068;12.058;2023-11-19T08:54:29;4.60;99.90
10042;DHT22;5061;49.068;12.058;2023-11-19T08:57:50;4.60;99.90
10042;DHT22;5061;49.068;12.058;2023-11-19T09:01:10;4.70;99.90
10042;DHT22;5061;49.068;12.058;2023-11-19T09:04:31;4.70;99.90
10042;DHT22;5061;49.068;12.058;2023-11-19T09:07:51;4.70;99.90
10042;DHT22;5061;49.068;12.058;2023-11-19T09:11:13;4.70;99.90
10042;DHT22;5061;49.068;12.058;2023-11-19T09:14:33;4.80;99.90
10042;DHT22;5061;49.068;12.058;2023-11-19T09:17:54;4.80;99.90
10042;DHT22;5061;49.068;12.058;2023-11-19T09:21:20;4.80;99.90
10042;DHT22;5061;49.068;12.058;2023-11-19T09:24:41;4.80;99.90
10042;DHT22;5061;49.068;12.058;2023-11-19T09:28:01;4.90;99.90
10042;DHT22;5061;49.068;12.058;2023-11-19T09:31:22;4.90;99.90
10042;DHT22;5061;49.068;12.058;2023-11-19T09:34:43;4.90;99.90
10042;DHT22;5061;49.068;12.058;2023-11-19T09:38:03;4.90;99.90
10042;DHT22;5061;49.068;12.058;2023-11-19T09:41:25;5.00;99.90
10042;DHT22;5061;49.068;12.058;2023-11-19T09:44:49;5.10;99.90
10042;DHT22;5061;49.068;12.058;2023-11-19T09:48:10;5.10;99.90
10042;DHT22;5061;49.068;12.058;2023-11-19T09:51:30;5.20;99.90
10042;DHT22;5061;49.068;12.058;2023-11-19T09:54:51;5.20;99.90
10042;DHT22;5061;49.068;12.058;2023-11-19T09:58:12;5.30;99.90
10042;DHT22;5061;49.068;12.058;2023-11-19T10:01:35;5.30;99.90
10042;DHT22;5061;49.068;12.058;2023-11-19T10:04:56;5.40;99.90
10042;DHT22;5061;49.068;12.058;2023-11-19T10:08:18;5.50;99.90
10042;DHT22;5061;49.068;12.058;2023-11-19T10:11:39;5.50;99.90
10042;DHT22;5061;49.068;12.058;2023-11-19T10:14:59;5.70;99.90
10042;DHT22;5061;49.068;12.058;2023-11-19T10:18:25;5.80;99.90
10042;DHT22;5061;49.068;12.058;2023-11-19T10:21:46;5.90;99.90
10042;DHT22;5061;49.068;12.058;2023-11-19T10:25:26;6.00;99.90
10042;DHT22;5061;49.068;12.058;2023-11-19T10:28:51;6.10;99.90
10042;DHT22;5061;49.068;12.058;2023-11-19T10:32:14;6.30;99.90
10042;DHT22;5061;49.068;12.058;2023-11-19T10:35:54;6.40;99.90
10042;DHT22;5061;49.068;12.058;2023-11-19T10:39:18;6.50;99.90
10042;DHT22;5061;49.068;12.058;2023-11-19T10:42:38;6.50;99.90
10042;DHT22;5061;49.068;12.058;2023-11-19T10:46:13;6.50;99.90
10042;DHT22;5061;49.068;12.058;2023-11-19T10:49:33;6.50;99.90
10042;DHT22;5061;49.068;12.058;2023-11-19T10:52:56;6.50;99.90
10042;DHT22;5061;49.068;12.058;2023-11-19T10:56:22;6.50;99.90
10042;DHT22;5061;49.068;12.058;2023-11-19T10:59:45;6.50;99.90
10042;DHT22;5061;49.068;12.058;2023-11-19T11:06:37;6.60;99.90
10042;DHT22;5061;49.068;12.058;2023-11-19T11:10:01;6.70;99.90
10042;DHT22;5061;49.068;12.058;2023-11-19T11:13:23;6.70;99.90
10042;DHT22;5061;49.068;12.058;2023-11-19T11:16:49;6.80;99.90
10042;DHT22;5061;49.068;12.058;2023-11-19T11:20:12;6.80;99.90
10042;DHT22;5061;49.068;12.058;2023-11-19T11:34:46;7.00;99.90
10042;DHT22;5061;49.068;12.058;2023-11-19T11:38:11;7.10;99.90
10042;DHT22;5061;49.068;12.058;2023-11-19T11:41:34;7.20;99.90
10042;DHT22;5061;49.068;12.058;2023-11-19T11:45:02;7.30;99.90
10042;DHT22;5061;49.068;12.058;2023-11-19T11:48:27;7.40;99.90
10042;DHT22;5061;49.068;12.058;2023-11-19T11:52:00;7.50;99.90
10042;DHT22;5061;49.068;12.058;2023-11-19T11:55:59;7.70;99.90
10042;DHT22;5061;49.068;12.058;2023-11-19T11:59:23;7.90;99.90
10042;DHT22;5061;49.068;12.058;2023-11-19T12:02:44;8.00;99.90
10042;DHT22;5061;49.068;12.058;2023-11-19T12:06:05;8.00;99.90
10042;DHT22;5061;49.068;12.058;2023-11-19T12:09:26;8.00;99.90
10042;DHT22;5061;49.068;12.058;2023-11-19T12:12:46;8.00;99.90
10042;DHT22;5061;49.068;12.058;2023-11-19T12:16:07;8.10;99.90
10042;DHT22;5061;49.068;12.058;2023-11-19T12:19:29;8.40;99.90
10042;DHT22;5061;49.068;12.058;2023-11-19T12:22:52;8.80;99.90
10042;DHT22;5061;49.068;12.058;2023-11-19T12:26:32;9.10;99.90
10042;DHT22;5061;49.068;12.058;2023-11-19T12:29:53;9.30;99.90
10042;DHT22;5061;49.068;12.058;2023-11-19T12:33:14;9.50;99.90
10042;DHT22;5061;49.068;12.058;2023-11-19T12:36:36;9.70;99.90
10042;DHT22;5061;49.068;12.058;2023-11-19T12:39:57;9.90;99.90
10042;DHT22;5061;49.068;12.058;2023-11-19T12:43:22;10.10;99.90
10042;DHT22;5061;49.068;12.058;2023-11-19T12:46:43;10.30;99.90
10042;DHT22;5061;49.068;12.058;2023-11-19T12:50:03;10.60;99.90
10042;DHT22;5061;49.068;12.058;2023-11-19T12:53:25;10.70;99.90
10042;DHT22;5061;49.068;12.058;2023-11-19T12:56:53;10.90;99.90
10042;DHT22;5061;49.068;12.058;2023-11-19T13:00:21;11.10;99.90
10042;DHT22;5061;49.068;12.058;2023-11-19T13:03:42;11.20;99.90
10042;DHT22;5061;49.068;12.058;2023-11-19T13:07:04;11.10;99.90
10042;DHT22;5061;49.068;12.058;2023-11-19T13:10:25;11.20;99.90
10042;DHT22;5061;49.068;12.058;2023-11-19T13:14:00;11.10;99.90
10042;DHT22;5061;49.068;12.058;2023-11-19T13:17:21;11.00;99.90
10042;DHT22;5061;49.068;12.058;2023-11-19T13:20:42;11.00;99.90
10042;DHT22;5061;49.068;12.058;2023-11-19T13:24:03;10.90;99.90
10042;DHT22;5061;49.068;12.058;2023-11-19T13:27:24;10.80;99.90
10042;DHT22;5061;49.068;12.058;2023-11-19T13:30:44;10.80;99.90
10042;DHT22;5061;49.068;12.058;2023-11-19T13:34:05;10.70;99.90
10042;DHT22;5061;49.068;12.058;2023-11-19T13:37:27;10.70;99.90
10042;DHT22;5061;49.068;12.058;2023-11-19T13:40:48;10.70;99.90
10042;DHT22;5061;49.068;12.058;2023-11-19T13:44:09;10.70;99.90
10042;DHT22;5061;49.068;12.058;2023-11-19T13:47:29;10.70;99.90
10042;DHT22;5061;49.068;12.058;2023-11-19T13:50:50;10.60;99.90
10042;DHT22;5061;49.068;12.058;2023-11-19T13:54:11;10.60;99.90
10042;DHT22;5061;49.068;12.058;2023-11-19T13:57:38;10.60;99.90
10042;DHT22;5061;49.068;12.058;2023-11-19T14:00:59;10.60;99.90
10042;DHT22;5061;49.068;12.058;2023-11-19T14:04:20;10.60;99.90
10042;DHT22;5061;49.068;12.058;2023-11-19T14:07:41;10.70;99.90
10042;DHT22;5061;49.068;12.058;2023-11-19T14:11:02;10.90;99.90
10042;DHT22;5061;49.068;12.058;2023-11-19T14:14:23;11.10;99.90
10042;DHT22;5061;49.068;12.058;2023-11-19T14:17:44;11.10;99.90
10042;DHT22;5061;49.068;12.058;2023-11-19T14:21:04;11.20;99.90
10042;DHT22;5061;49.068;12.058;2023-11-19T14:24:25;11.30;99.90
10042;DHT22;5061;49.068;12.058;2023-11-19T14:27:46;11.30;99.90
10042;DHT22;5061;49.068;12.058;2023-11-19T14:31:06;11.30;99.90
10042;DHT22;5061;49.068;12.058;2023-11-19T14:34:27;11.30;99.90
10042;DHT22;5061;49.068;12.058;2023-11-19T14:37:48;11.30;99.90
10042;DHT22;5061;49.068;12.058;2023-11-19T14:41:09;11.20;99.90
10042;DHT22;5061;49.068;12.058;2023-11-19T14:44:30;11.10;99.90
10042;DHT22;5061;49.068;12.058;2023-11-19T14:47:50;11.10;99.90
10042;DHT22;5061;49.068;12.058;2023-11-19T14:51:13;11.00;99.90
10042;DHT22;5061;49.068;12.058;2023-11-19T14:54:33;10.90;99.90
10042;DHT22;5061;49.068;12.058;2023-11-19T14:57:54;11.00;99.90
10042;DHT22;5061;49.068;12.058;2023-11-19T15:01:14;10.90;99.90
10042;DHT22;5061;49.068;12.058;2023-11-19T15:04:35;10.80;99.90
10042;DHT22;5061;49.068;12.058;2023-11-19T15:07:56;10.80;99.90
10042;DHT22;5061;49.068;12.058;2023-11-19T15:11:17;10.70;99.90
10042;DHT22;5061;49.068;12.058;2023-11-19T15:14:37;10.60;99.90
10042;DHT22;5061;49.068;12.058;2023-11-19T15:17:58;10.40;99.90
10042;DHT22;5061;49.068;12.058;2023-11-19T15:21:19;10.30;99.90
10042;DHT22;5061;49.068;12.058;2023-11-19T15:24:39;10.10;99.90
10042;DHT22;5061;49.068;12.058;2023-11-19T15:28:02;9.90;99.90
10042;DHT22;5061;49.068;12.058;2023-11-19T15:31:23;9.70;99.90
10042;DHT22;5061;49.068;12.058;2023-11-19T15:34:43;9.60;99.90
10042;DHT22;5061;49.068;12.058;2023-11-19T15:38:04;9.50;99.90
10042;DHT22;5061;49.068;12.058;2023-11-19T15:41:25;9.30;99.90
10042;DHT22;5061;49.068;12.058;2023-11-19T15:44:45;9.30;99.90
10042;DHT22;5061;49.068;12.058;2023-11-19T15:48:06;9.30;99.90
10042;DHT22;5061;49.068;12.058;2023-11-19T15:51:27;9.30;99.90
10042;DHT22;5061;49.068;12.058;2023-11-19T15:54:47;9.30;99.90
10042;DHT22;5061;49.068;12.058;2023-11-19T15:58:08;9.30;99.90
10042;DHT22;5061;49.068;12.058;2023-11-19T16:01:29;9.20;99.90
10042;DHT22;5061;49.068;12.058;2023-11-19T16:04:50;9.20;99.90
10042;DHT22;5061;49.068;12.058;2023-11-19T16:08:12;9.10;99.90
10042;DHT22;5061;49.068;12.058;2023-11-19T16:11:33;9.10;99.90
10042;DHT22;5061;49.068;12.058;2023-11-19T16:14:54;9.10;99.90
10042;DHT22;5061;49.068;12.058;2023-11-19T16:18:15;9.00;99.90
10042;DHT22;5061;49.068;12.058;2023-11-19T16:21:36;9.00;99.90
10042;DHT22;5061;49.068;12.058;2023-11-19T16:24:56;9.00;99.90
10042;DHT22;5061;49.068;12.058;2023-11-19T16:28:17;9.00;99.90
10042;DHT22;5061;49.068;12.058;2023-11-19T16:31:38;9.00;99.90
10042;DHT22;5061;49.068;12.058;2023-11-19T16:35:03;9.10;99.90
10042;DHT22;5061;49.068;12.058;2023-11-19T16:38:24;9.10;99.90
10042;DHT22;5061;49.068;12.058;2023-11-19T16:41:46;9.00;99.90
10042;DHT22;5061;49.068;12.058;2023-11-19T16:45:08;9.00;99.90
10042;DHT22;5061;49.068;12.058;2023-11-19T16:48:31;9.00;99.90
10042;DHT22;5061;49.068;12.058;2023-11-19T16:51:55;8.90;99.90
10042;DHT22;5061;49.068;12.058;2023-11-19T16:55:16;8.80;99.90
10042;DHT22;5061;49.068;12.058;2023-11-19T16:58:36;8.80;99.90
10042;DHT22;5061;49.068;12.058;2023-11-19T17:01:57;8.80;99.90
10042;DHT22;5061;49.068;12.058;2023-11-19T17:05:18;8.70;99.90
10042;DHT22;5061;49.068;12.058;2023-11-19T17:08:38;8.70;99.90
10042;DHT22;5061;49.068;12.058;2023-11-19T17:11:59;8.70;99.90
10042;DHT22;5061;49.068;12.058;2023-11-19T17:15:19;8.50;99.90
10042;DHT22;5061;49.068;12.058;2023-11-19T17:18:41;8.40;99.90
10042;DHT22;5061;49.068;12.058;2023-11-19T17:22:02;8.30;99.90
10042;DHT22;5061;49.068;12.058;2023-11-19T17:25:23;8.20;99.90
10042;DHT22;5061;49.068;12.058;2023-11-19T17:28:43;8.10;99.90
10042;DHT22;5061;49.068;12.058;2023-11-19T17:32:04;8.00;99.90
10042;DHT22;5061;49.068;12.058;2023-11-19T17:35:25;7.90;99.90
10042;DHT22;5061;49.068;12.058;2023-11-19T17:38:46;7.90;99.90
10042;DHT22;5061;49.068;12.058;2023-11-19T17:42:06;7.80;99.90
10042;DHT22;5061;49.068;12.058;2023-11-19T17:45:27;7.80;99.90
10042;DHT22;5061;49.068;12.058;2023-11-19T17:48:48;7.90;99.90
10042;DHT22;5061;49.068;12.058;2023-11-19T17:52:10;8.00;99.90
10042;DHT22;5061;49.068;12.058;2023-11-19T17:55:30;8.00;99.90
10042;DHT22;5061;49.068;12.058;2023-11-19T17:58:51;8.10;99.90
10042;DHT22;5061;49.068;12.058;2023-11-19T18:02:12;8.10;99.90
10042;DHT22;5061;49.068;12.058;2023-11-19T18:05:33;8.30;99.90
10042;DHT22;5061;49.068;12.058;2023-11-19T18:08:53;8.50;99.90
10042;DHT22;5061;49.068;12.058;2023-11-19T18:12:14;8.70;99.90
10042;DHT22;5061;49.068;12.058;2023-11-19T18:15:35;8.90;99.90
10042;DHT22;5061;49.068;12.058;2023-11-19T18:18:55;9.00;99.90
10042;DHT22;5061;49.068;12.058;2023-11-19T18:22:16;9.20;99.90
10042;DHT22;5061;49.068;12.058;2023-11-19T18:25:37;9.30;99.90
10042;DHT22;5061;49.068;12.058;2023-11-19T18:28:57;9.40;99.90
10042;DHT22;5061;49.068;12.058;2023-11-19T18:32:18;9.40;99.90
10042;DHT22;5061;49.068;12.058;2023-11-19T18:35:39;9.50;99.90
10042;DHT22;5061;49.068;12.058;2023-11-19T18:38:59;9.40;99.90
10042;DHT22;5061;49.068;12.058;2023-11-19T18:42:20;9.40;99.90
10042;DHT22;5061;49.068;12.058;2023-11-19T18:45:40;9.40;99.90
10042;DHT22;5061;49.068;12.058;2023-11-19T18:49:01;9.40;99.90
10042;DHT22;5061;49.068;12.058;2023-11-19T18:52:22;9.30;99.90
10042;DHT22;5061;49.068;12.058;2023-11-19T18:55:43;9.30;99.90
10042;DHT22;5061;49.068;12.058;2023-11-19T18:59:04;9.30;99.90
10042;DHT22;5061;49.068;12.058;2023-11-19T19:02:30;9.30;99.90
10042;DHT22;5061;49.068;12.058;2023-11-19T19:05:51;9.30;99.90
10042;DHT22;5061;49.068;12.058;2023-11-19T19:09:11;9.20;99.90
10042;DHT22;5061;49.068;12.058;2023-11-19T19:12:32;9.20;99.90
10042;DHT22;5061;49.068;12.058;2023-11-19T19:15:55;9.20;99.90
10042;DHT22;5061;49.068;12.058;2023-11-19T19:19:15;9.20;99.90
10042;DHT22;5061;49.068;12.058;2023-11-19T19:22:36;9.10;99.90
10042;DHT22;5061;49.068;12.058;2023-11-19T19:25:57;9.00;99.90
10042;DHT22;5061;49.068;12.058;2023-11-19T19:29:18;8.90;99.90
10042;DHT22;5061;49.068;12.058;2023-11-19T19:32:40;8.80;99.90
10042;DHT22;5061;49.068;12.058;2023-11-19T19:36:04;8.80;99.90
10042;DHT22;5061;49.068;12.058;2023-11-19T19:39:26;8.70;99.90
10042;DHT22;5061;49.068;12.058;2023-11-19T19:42:48;8.70;99.90
10042;DHT22;5061;49.068;12.058;2023-11-19T19:46:09;8.70;99.90
10042;DHT22;5061;49.068;12.058;2023-11-19T19:49:29;8.80;99.90
10042;DHT22;5061;49.068;12.058;2023-11-19T19:52:50;8.90;99.90
10042;DHT22;5061;49.068;12.058;2023-11-19T19:56:11;8.90;99.90
10042;DHT22;5061;49.068;12.058;2023-11-19T19:59:31;8.90;99.90
10042;DHT22;5061;49.068;12.058;2023-11-19T20:02:53;8.90;99.90
10042;DHT22;5061;49.068;12.058;2023-11-19T20:06:14;9.00;99.90
10042;DHT22;5061;49.068;12.058;2023-11-19T20:09:36;8.90;99.90
10042;DHT22;5061;49.068;12.058;2023-11-19T20:12:58;8.80;99.90
10042;DHT22;5061;49.068;12.058;2023-11-19T20:16:21;8.80;99.90
10042;DHT22;5061;49.068;12.058;2023-11-19T20:19:42;8.80;99.90
10042;DHT22;5061;49.068;12.058;2023-11-19T20:23:02;8.80;99.90
10042;DHT22;5061;49.068;12.058;2023-11-19T20:26:23;8.80;99.90
10042;DHT22;5061;49.068;12.058;2023-11-19T20:29:47;8.70;99.90
10042;DHT22;5061;49.068;12.058;2023-11-19T20:33:08;8.70;99.90
10042;DHT22;5061;49.068;12.058;2023-11-19T20:36:28;8.70;99.90
10042;DHT22;5061;49.068;12.058;2023-11-19T20:39:49;8.70;99.90
10042;DHT22;5061;49.068;12.058;2023-11-19T20:43:09;8.70;99.90
10042;DHT22;5061;49.068;12.058;2023-11-19T20:46:30;8.70;99.90
10042;DHT22;5061;49.068;12.058;2023-11-19T20:49:51;8.70;99.90
10042;DHT22;5061;49.068;12.058;2023-11-19T20:53:11;8.70;99.90
10042;DHT22;5061;49.068;12.058;2023-11-19T20:56:32;8.70;99.90
10042;DHT22;5061;49.068;12.058;2023-11-19T20:59:52;8.70;99.90
10042;DHT22;5061;49.068;12.058;2023-11-19T21:03:13;8.60;99.90
10042;DHT22;5061;49.068;12.058;2023-11-19T21:06:34;8.70;99.90
10042;DHT22;5061;49.068;12.058;2023-11-19T21:09:54;8.60;99.90
10042;DHT22;5061;49.068;12.058;2023-11-19T21:13:15;8.70;99.90
10042;DHT22;5061;49.068;12.058;2023-11-19T21:16:36;8.60;99.90
10042;DHT22;5061;49.068;12.058;2023-11-19T21:19:57;8.50;99.90
10042;DHT22;5061;49.068;12.058;2023-11-19T21:23:18;8.50;99.90
10042;DHT22;5061;49.068;12.058;2023-11-19T21:26:41;8.40;99.90
10042;DHT22;5061;49.068;12.058;2023-11-19T21:30:02;8.40;99.90
10042;DHT22;5061;49.068;12.058;2023-11-19T21:33:28;8.30;99.90
10042;DHT22;5061;49.068;12.058;2023-11-19T21:36:48;8.30;99.90
10042;DHT22;5061;49.068;12.058;2023-11-19T21:40:09;8.20;99.90
10042;DHT22;5061;49.068;12.058;2023-11-19T21:43:30;8.10;99.90
10042;DHT22;5061;49.068;12.058;2023-11-19T21:46:51;8.00;99.90